Time;durP1;ratioP1;P1;durP2;ratioP2;P2;SDS_P1;SDS_P2;PMS_P1;PMS_P2;Temp;Humidity;BMP_temperature;BMP_pressure;BME280_temperature;BME280_humidity;BME280_pressure;Samples;Min_cycle;Max_cycle;Signal;HPM_P1;HPM_P2
2021/05/21 00:01:49;;;;;;;1.27;0.90;;;16.40;51.10;;;;;;5032640;28;20623;-55
2021/05/21 00:04:16;;;;;;;2.03;1.00;;;16.40;51.30;;;;;;5032376;28;20631;-54
2021/05/21 00:06:44;;;;;;;1.33;1.17;;;16.40;51.50;;;;;;5029699;28;20710;-54
2021/05/21 00:09:10;;;;;;;2.43;1.13;;;16.40;51.50;;;;;;5012218;28;20659;-54
2021/05/21 00:11:37;;;;;;;2.80;0.90;;;16.40;51.70;;;;;;5012721;28;20632;-54
2021/05/21 00:14:04;;;;;;;1.60;1.00;;;16.30;51.50;;;;;;5012439;28;21208;-54
2021/05/21 00:16:31;;;;;;;1.60;1.30;;;16.40;51.60;;;;;;5013155;28;20648;-53
2021/05/21 00:18:57;;;;;;;2.70;1.33;;;16.40;51.60;;;;;;5031666;28;20623;-54
2021/05/21 00:21:24;;;;;;;1.00;0.90;;;16.40;51.60;;;;;;4997411;28;21197;-54
2021/05/21 00:23:52;;;;;;;3.03;1.20;;;16.40;51.60;;;;;;5010076;28;20662;-54
2021/05/21 00:26:18;;;;;;;1.80;1.30;;;16.40;51.60;;;;;;5012256;28;20663;-54
2021/05/21 00:28:45;;;;;;;1.03;1.03;;;16.30;51.50;;;;;;5030700;28;20689;-54
2021/05/21 00:31:12;;;;;;;2.60;1.87;;;16.30;51.70;;;;;;5015370;28;21266;-54
2021/05/21 00:33:39;;;;;;;2.83;1.10;;;16.30;51.80;;;;;;5011007;28;20694;-54
2021/05/21 00:36:06;;;;;;;4.10;1.37;;;16.30;52.10;;;;;;5011705;28;20714;-53
2021/05/21 00:38:32;;;;;;;2.53;1.23;;;16.30;52.00;;;;;;5001691;28;20629;-54
2021/05/21 00:41:00;;;;;;;3.67;1.13;;;16.30;52.00;;;;;;4992237;28;20693;-53
2021/05/21 00:43:27;;;;;;;1.83;1.20;;;16.30;52.10;;;;;;4992279;28;20637;-53
2021/05/21 00:45:54;;;;;;;3.93;1.40;;;16.30;52.10;;;;;;5005126;28;20671;-54
2021/05/21 00:48:21;;;;;;;1.30;1.20;;;16.30;52.10;;;;;;5026140;28;20631;-54
2021/05/21 00:50:49;;;;;;;1.87;1.30;;;16.30;52.70;;;;;;5005694;28;20648;-54
2021/05/21 00:53:16;;;;;;;1.40;1.17;;;16.30;52.30;;;;;;4992413;28;20625;-53
2021/05/21 00:55:43;;;;;;;2.67;1.40;;;16.30;52.40;;;;;;4996582;28;20652;-53
2021/05/21 00:58:10;;;;;;;2.10;1.00;;;16.30;52.40;;;;;;5002072;28;20999;-54
2021/05/21 01:00:37;;;;;;;2.77;1.77;;;16.30;52.40;;;;;;5003455;28;21161;-53
2021/05/21 01:03:04;;;;;;;0.80;0.80;;;16.20;52.40;;;;;;4992518;28;20635;-54
2021/05/21 01:05:31;;;;;;;1.73;1.00;;;16.20;52.40;;;;;;5001408;28;20767;-54
2021/05/21 01:07:58;;;;;;;1.70;1.00;;;16.20;52.60;;;;;;5014898;28;21169;-54
2021/05/21 01:10:25;;;;;;;1.47;1.20;;;16.20;52.50;;;;;;5011485;28;20635;-54
2021/05/21 01:12:51;;;;;;;1.80;1.27;;;16.10;52.50;;;;;;5011732;28;20698;-55
2021/05/21 01:15:19;;;;;;;1.43;1.03;;;16.20;52.70;;;;;;5009914;28;21098;-54
2021/05/21 01:17:46;;;;;;;3.63;1.20;;;16.20;52.70;;;;;;5020273;28;20642;-54
2021/05/21 01:20:13;;;;;;;4.77;1.10;;;16.20;52.60;;;;;;5010684;28;20690;-55
2021/05/21 01:22:41;;;;;;;3.03;1.40;;;16.20;52.60;;;;;;4992032;28;20754;-54
2021/05/21 01:25:08;;;;;;;3.10;1.13;;;16.10;52.60;;;;;;4991253;28;20723;-54
2021/05/21 01:27:35;;;;;;;1.67;1.20;;;16.10;52.80;;;;;;5015032;28;20631;-54
2021/05/21 01:30:02;;;;;;;3.40;2.17;;;16.10;53.10;;;;;;5010912;28;20628;-54
2021/05/21 01:32:28;;;;;;;1.50;1.40;;;16.00;53.20;;;;;;5010167;28;20702;-53
2021/05/21 01:34:55;;;;;;;4.50;1.10;;;16.00;53.30;;;;;;5007434;22;21147;-50
2021/05/21 01:37:22;;;;;;;1.80;1.50;;;16.00;53.50;;;;;;5009250;28;20628;-51
2021/05/21 01:39:51;;;;;;;4.87;1.13;;;16.00;53.70;;;;;;5009928;28;20644;-50
2021/05/21 01:42:18;;;;;;;1.43;1.23;;;15.90;53.70;;;;;;5009886;28;20659;-51
2021/05/21 01:44:45;;;;;;;4.80;1.67;;;15.90;53.80;;;;;;5009255;28;20628;-51
2021/05/21 01:47:12;;;;;;;2.40;1.23;;;15.90;53.80;;;;;;5009744;28;20623;-51
2021/05/21 01:49:39;;;;;;;1.40;1.30;;;16.00;53.90;;;;;;5009816;28;20707;-50
2021/05/21 01:52:06;;;;;;;1.73;1.30;;;16.00;53.90;;;;;;4995952;28;20671;-50
2021/05/21 01:54:33;;;;;;;2.40;1.30;;;16.00;53.90;;;;;;4990200;28;20621;-51
2021/05/21 01:57:01;;;;;;;4.37;1.60;;;16.00;54.00;;;;;;5003472;28;21156;-50
2021/05/21 01:59:28;;;;;;;4.63;1.70;;;16.00;53.90;;;;;;5009043;28;20632;-52
2021/05/21 02:01:55;;;;;;;1.90;0.97;;;15.90;53.70;;;;;;4997621;28;21224;-51
2021/05/21 02:04:28;;;;;;;2.20;1.17;;;15.90;53.70;;;;;;4989678;28;21328;-50
2021/05/21 02:06:55;;;;;;;1.93;1.40;;;16.00;53.80;;;;;;5002500;28;20683;-51
2021/05/21 02:09:21;;;;;;;1.87;1.70;;;15.90;53.40;;;;;;5009432;28;20697;-50
2021/05/21 02:11:48;;;;;;;2.60;1.23;;;16.00;53.50;;;;;;5009388;28;20694;-50
2021/05/21 02:14:16;;;;;;;1.03;0.80;;;15.90;53.50;;;;;;5009483;28;21001;-51
2021/05/21 02:16:42;;;;;;;1.93;1.70;;;15.90;53.70;;;;;;5009580;28;20706;-51
2021/05/21 02:19:09;;;;;;;1.77;1.07;;;15.90;53.80;;;;;;5009196;28;20658;-50
2021/05/21 02:21:38;;;;;;;3.10;1.40;;;15.80;53.90;;;;;;5009488;28;20640;-52
2021/05/21 02:24:06;;;;;;;1.70;1.00;;;15.90;54.10;;;;;;5009257;28;20670;-50
2021/05/21 02:26:33;;;;;;;2.60;1.33;;;15.80;54.10;;;;;;5009442;28;20664;-50
2021/05/21 02:29:00;;;;;;;1.70;1.60;;;15.90;54.30;;;;;;5008560;28;20748;-49
2021/05/21 02:31:27;;;;;;;1.70;1.23;;;15.90;54.50;;;;;;5008642;28;21219;-50
2021/05/21 02:33:54;;;;;;;1.43;1.20;;;15.90;54.60;;;;;;5008838;28;20628;-51
2021/05/21 02:36:21;;;;;;;1.60;1.00;;;15.90;54.50;;;;;;5009246;28;20656;-50
2021/05/21 02:38:48;;;;;;;1.57;1.10;;;15.90;54.50;;;;;;5008833;28;20674;-50
2021/05/21 02:41:14;;;;;;;1.30;1.10;;;15.90;54.30;;;;;;5008614;28;20681;-50
2021/05/21 02:43:41;;;;;;;1.40;0.93;;;15.90;54.20;;;;;;5010553;28;21202;-50
2021/05/21 02:46:08;;;;;;;2.13;1.27;;;15.90;54.30;;;;;;5012352;28;20652;-50
2021/05/21 02:48:35;;;;;;;1.40;1.30;;;15.90;54.10;;;;;;5012293;28;20631;-50
2021/05/21 02:51:02;;;;;;;1.10;1.00;;;15.90;54.20;;;;;;5009154;28;20714;-50
2021/05/21 02:53:29;;;;;;;1.30;0.80;;;15.90;54.20;;;;;;4993148;28;20691;-50
2021/05/21 02:55:55;;;;;;;1.80;1.33;;;15.80;53.90;;;;;;5009731;28;21060;-50
2021/05/21 02:58:22;;;;;;;1.40;1.10;;;15.90;54.00;;;;;;5011878;28;20689;-50
2021/05/21 03:00:49;;;;;;;1.03;0.87;;;15.90;53.80;;;;;;5012380;28;21176;-50
2021/05/21 03:03:15;;;;;;;2.80;0.83;;;15.90;53.60;;;;;;5012680;28;20708;-50
2021/05/21 03:05:43;;;;;;;5.50;1.27;;;15.80;53.50;;;;;;4997879;28;20999;-52
2021/05/21 03:08:11;;;;;;;1.93;1.07;;;15.90;53.60;;;;;;4992589;28;20660;-52
2021/05/21 03:10:37;;;;;;;2.53;1.47;;;15.90;53.60;;;;;;4995602;28;20619;-51
2021/05/21 03:13:04;;;;;;;1.30;1.20;;;15.90;53.60;;;;;;5012349;28;20623;-52
2021/05/21 03:15:31;;;;;;;1.13;0.90;;;15.90;53.50;;;;;;5011988;28;21056;-52
2021/05/21 03:17:59;;;;;;;1.37;1.10;;;15.90;53.60;;;;;;5012064;28;20619;-52
2021/05/21 03:20:26;;;;;;;0.97;0.90;;;15.90;53.80;;;;;;5011900;28;20681;-52
2021/05/21 03:22:53;;;;;;;1.13;1.03;;;15.90;53.90;;;;;;5011989;28;20631;-50
2021/05/21 03:25:20;;;;;;;1.90;0.90;;;15.80;53.70;;;;;;5011109;28;21255;-53
2021/05/21 03:27:47;;;;;;;1.20;0.87;;;15.80;53.60;;;;;;5011597;28;20619;-50
2021/05/21 03:30:14;;;;;;;1.90;1.20;;;15.90;53.80;;;;;;5011837;28;20944;-52
2021/05/21 03:32:41;;;;;;;1.90;1.43;;;15.90;53.70;;;;;;5011565;28;20624;-51
2021/05/21 03:35:09;;;;;;;2.77;1.37;;;15.80;53.50;;;;;;5011651;28;20675;-51
2021/05/21 03:37:35;;;;;;;2.00;1.10;;;15.80;53.70;;;;;;5011513;28;20655;-51
2021/05/21 03:40:04;;;;;;;1.43;1.33;;;15.80;53.60;;;;;;5011115;28;20962;-51
2021/05/21 03:42:31;;;;;;;4.50;1.27;;;15.80;53.70;;;;;;5011494;28;21199;-51
2021/05/21 03:44:58;;;;;;;2.27;1.30;;;15.80;53.90;;;;;;5011665;28;20690;-51
2021/05/21 03:47:25;;;;;;;2.50;1.40;;;15.80;53.90;;;;;;5007069;28;20669;-51
2021/05/21 03:49:52;;;;;;;1.70;1.03;;;15.80;53.90;;;;;;4995930;28;20635;-51
2021/05/21 03:52:19;;;;;;;1.27;0.90;;;15.80;54.20;;;;;;4995572;28;20723;-50
2021/05/21 03:54:45;;;;;;;1.27;0.93;;;15.70;54.10;;;;;;5011015;28;20683;-51
2021/05/21 03:57:13;;;;;;;2.00;1.03;;;15.80;54.20;;;;;;5011200;28;20623;-51
2021/05/21 03:59:40;;;;;;;2.30;0.90;;;15.80;54.30;;;;;;5011371;28;20706;-51
2021/05/21 04:02:06;;;;;;;2.37;1.90;;;15.80;54.40;;;;;;5006084;28;20635;-51
2021/05/21 04:04:34;;;;;;;1.23;0.87;;;15.80;54.40;;;;;;5011188;28;20628;-51
2021/05/21 04:07:00;;;;;;;1.50;1.10;;;15.80;54.30;;;;;;5010967;28;21081;-51
2021/05/21 04:09:27;;;;;;;1.10;1.00;;;15.70;54.40;;;;;;5010744;28;20635;-51
2021/05/21 04:11:54;;;;;;;3.80;1.13;;;15.70;54.50;;;;;;5010535;28;20690;-51
2021/05/21 04:14:21;;;;;;;2.33;1.67;;;15.70;54.60;;;;;;5011064;28;20755;-51
2021/05/21 04:16:48;;;;;;;1.37;1.00;;;15.70;54.70;;;;;;5010749;28;20809;-51
2021/05/21 04:19:15;;;;;;;1.30;1.07;;;15.70;54.80;;;;;;5010572;28;20628;-51
2021/05/21 04:21:41;;;;;;;1.80;1.20;;;15.70;54.80;;;;;;5010566;28;20623;-50
2021/05/21 04:24:09;;;;;;;1.63;1.17;;;15.70;54.80;;;;;;5010907;28;20993;-50
2021/05/21 04:26:36;;;;;;;1.33;0.90;;;15.70;54.90;;;;;;5010985;28;21266;-51
2021/05/21 04:29:03;;;;;;;3.20;1.10;;;15.70;54.90;;;;;;4999434;28;20688;-50
2021/05/21 04:31:30;;;;;;;1.20;0.90;;;15.70;54.90;;;;;;5007389;28;20666;-51
2021/05/21 04:33:57;;;;;;;1.73;1.47;;;15.80;54.90;;;;;;5010376;28;20991;-51
2021/05/21 04:36:24;;;;;;;1.40;1.10;;;15.80;54.70;;;;;;5010186;28;20706;-50
2021/05/21 04:38:51;;;;;;;1.97;1.00;;;15.80;54.60;;;;;;5009964;28;20682;-50
2021/05/21 04:41:17;;;;;;;1.10;1.00;;;15.70;54.60;;;;;;5011057;28;20682;-50
2021/05/21 04:43:45;;;;;;;1.23;1.13;;;15.80;54.70;;;;;;5010291;28;20616;-51
2021/05/21 04:46:12;;;;;;;1.30;1.20;;;15.80;54.60;;;;;;5009413;28;21065;-52
2021/05/21 04:48:40;;;;;;;1.63;1.03;;;15.80;54.70;;;;;;5008121;28;20659;-52
2021/05/21 04:51:07;;;;;;;1.80;1.50;;;15.90;54.90;;;;;;5008869;28;20659;-50
2021/05/21 04:53:34;;;;;;;4.03;1.10;;;15.90;54.80;;;;;;5010410;28;21111;-49
2021/05/21 04:56:01;;;;;;;1.30;1.20;;;15.90;54.60;;;;;;5009015;28;21232;-50
2021/05/21 04:58:28;;;;;;;2.20;1.23;;;15.90;54.60;;;;;;5009858;28;20612;-50
2021/05/21 05:00:54;;;;;;;1.33;1.23;;;15.90;54.60;;;;;;5010317;28;21156;-52
2021/05/21 05:03:22;;;;;;;1.33;0.83;;;16.00;54.70;;;;;;5010331;28;20689;-50
2021/05/21 05:05:49;;;;;;;5.77;1.23;;;16.00;54.80;;;;;;5009170;28;20675;-50
2021/05/21 05:08:16;;;;;;;1.23;0.93;;;16.00;54.70;;;;;;5009879;28;20619;-51
2021/05/21 05:10:44;;;;;;;3.23;1.23;;;16.00;54.80;;;;;;5009784;28;20690;-51
2021/05/21 05:13:10;;;;;;;2.10;1.20;;;16.00;54.70;;;;;;5010654;28;20693;-51
2021/05/21 05:15:38;;;;;;;1.30;1.10;;;16.10;55.00;;;;;;5009581;28;20660;-51
2021/05/21 05:18:05;;;;;;;1.07;1.00;;;16.00;54.80;;;;;;5009478;28;20689;-53
2021/05/21 05:20:32;;;;;;;1.50;1.40;;;16.00;54.90;;;;;;5010156;28;20620;-51
2021/05/21 05:23:00;;;;;;;3.60;0.90;;;16.00;54.70;;;;;;5009222;28;20632;-52
2021/05/21 05:25:26;;;;;;;1.20;1.10;;;16.00;54.70;;;;;;5010034;28;20683;-51
2021/05/21 05:27:53;;;;;;;1.30;1.20;;;16.10;54.80;;;;;;5009288;28;20976;-52
2021/05/21 05:30:20;;;;;;;1.67;1.20;;;16.00;54.50;;;;;;5009333;28;21034;-52
2021/05/21 05:32:47;;;;;;;2.27;1.53;;;16.10;54.70;;;;;;5009125;28;21004;-52
2021/05/21 05:35:14;;;;;;;1.60;1.00;;;16.10;54.80;;;;;;5009419;28;20825;-53
2021/05/21 05:37:41;;;;;;;2.17;1.17;;;16.10;55.00;;;;;;5009573;28;21202;-53
2021/05/21 05:40:09;;;;;;;2.80;1.40;;;16.10;54.90;;;;;;5009800;28;20624;-52
2021/05/21 05:42:36;;;;;;;2.43;1.33;;;16.20;55.00;;;;;;5008188;28;20698;-52
2021/05/21 05:45:03;;;;;;;1.40;1.07;;;16.20;54.80;;;;;;5009902;28;20713;-52
2021/05/21 05:47:29;;;;;;;2.83;1.60;;;16.30;54.60;;;;;;5008774;28;20647;-52
2021/05/21 05:49:56;;;;;;;2.30;1.27;;;16.30;54.60;;;;;;5009964;28;20681;-51
2021/05/21 05:52:23;;;;;;;2.90;1.30;;;16.30;54.20;;;;;;5009909;28;21156;-53
2021/05/21 05:54:50;;;;;;;1.50;1.40;;;16.30;54.10;;;;;;5009914;28;20775;-52
2021/05/21 05:57:17;;;;;;;0.90;0.80;;;16.30;53.80;;;;;;5009245;28;20620;-52
2021/05/21 05:59:44;;;;;;;3.17;1.37;;;16.40;53.90;;;;;;5009442;28;21141;-52
2021/05/21 06:02:11;;;;;;;3.03;1.47;;;16.40;53.90;;;;;;5009585;28;21155;-52
2021/05/21 06:04:38;;;;;;;4.83;1.30;;;16.40;54.00;;;;;;5008689;28;20662;-52
2021/05/21 06:07:04;;;;;;;2.80;1.23;;;16.50;54.80;;;;;;5009354;28;20718;-52
2021/05/21 06:09:31;;;;;;;2.43;1.20;;;16.50;54.30;;;;;;5009015;28;20635;-51
2021/05/21 06:11:58;;;;;;;1.93;1.20;;;16.50;54.20;;;;;;5009453;28;20627;-51
2021/05/21 06:14:25;;;;;;;3.37;1.10;;;16.50;53.90;;;;;;5008940;28;20631;-52
2021/05/21 06:16:52;;;;;;;2.00;1.10;;;16.60;53.90;;;;;;5008987;28;20709;-52
2021/05/21 06:19:19;;;;;;;2.10;1.03;;;16.60;53.50;;;;;;5012917;28;20718;-52
2021/05/21 06:21:46;;;;;;;1.60;1.27;;;16.60;53.70;;;;;;5013189;28;20632;-51
2021/05/21 06:24:14;;;;;;;1.63;1.20;;;16.60;53.20;;;;;;5007049;28;20633;-52
2021/05/21 06:26:43;;;;;;;1.37;1.27;;;16.70;53.00;;;;;;4993044;28;20676;-52
2021/05/21 06:29:10;;;;;;;1.30;1.00;;;16.70;53.30;;;;;;5001959;28;20762;-52
2021/05/21 06:31:37;;;;;;;3.73;1.00;;;16.70;53.20;;;;;;5012709;28;20689;-52
2021/05/21 06:34:04;;;;;;;1.67;1.53;;;16.70;53.10;;;;;;5012589;28;21191;-52
2021/05/21 06:36:31;;;;;;;3.13;1.20;;;16.70;53.30;;;;;;5012978;28;20713;-52
2021/05/21 06:38:57;;;;;;;1.87;1.33;;;16.70;53.20;;;;;;5013083;28;20639;-51
2021/05/21 06:41:24;;;;;;;1.57;1.47;;;16.70;53.00;;;;;;5012546;28;20689;-51
2021/05/21 06:43:51;;;;;;;4.47;1.13;;;16.80;53.30;;;;;;5012566;28;20623;-51
2021/05/21 06:46:21;;;;;;;1.80;1.17;;;16.80;54.90;;;;;;5012463;28;20667;-52
2021/05/21 06:48:48;;;;;;;2.53;1.17;;;16.90;53.50;;;;;;5012518;28;20619;-51
2021/05/21 06:51:16;;;;;;;3.77;1.50;;;17.00;53.60;;;;;;5012829;28;21038;-51
2021/05/21 06:53:43;;;;;;;2.20;1.47;;;17.00;52.60;;;;;;5012466;28;21196;-51
2021/05/21 06:56:12;;;;;;;5.53;1.73;;;17.00;53.50;;;;;;5012886;28;20667;-51
2021/05/21 06:58:39;;;;;;;2.27;1.67;;;17.10;52.70;;;;;;5012384;28;20635;-51
2021/05/21 07:01:05;;;;;;;1.57;1.03;;;17.10;53.00;;;;;;5012155;28;20639;-51
2021/05/21 07:03:32;;;;;;;2.40;1.40;;;17.20;52.90;;;;;;5012167;28;20674;-51
2021/05/21 07:06:00;;;;;;;4.33;1.63;;;17.20;53.10;;;;;;5012131;28;20639;-51
2021/05/21 07:08:26;;;;;;;3.93;1.10;;;17.30;52.60;;;;;;5012005;28;20624;-51
2021/05/21 07:10:53;;;;;;;2.00;1.17;;;17.20;52.20;;;;;;5012622;28;20631;-51
2021/05/21 07:13:21;;;;;;;1.60;1.13;;;17.20;52.20;;;;;;5012447;28;21167;-51
2021/05/21 07:15:47;;;;;;;2.50;1.50;;;17.20;51.70;;;;;;5013059;28;20817;-51
2021/05/21 07:18:14;;;;;;;1.13;1.03;;;17.20;52.00;;;;;;5006256;28;20624;-51
2021/05/21 07:20:44;;;;;;;2.80;1.43;;;17.20;51.90;;;;;;5001257;28;20620;-53
2021/05/21 07:23:11;;;;;;;2.77;1.20;;;17.20;52.40;;;;;;5011822;28;21040;-51
2021/05/21 07:25:38;;;;;;;3.20;1.57;;;17.10;52.30;;;;;;5012326;28;20726;-51
2021/05/21 07:28:05;;;;;;;1.23;0.90;;;17.10;52.20;;;;;;5011825;28;20675;-51
2021/05/21 07:30:32;;;;;;;2.37;1.40;;;17.10;52.30;;;;;;5011671;28;20981;-51
2021/05/21 07:32:58;;;;;;;1.10;1.00;;;17.10;52.80;;;;;;5011535;28;20635;-50
2021/05/21 07:35:25;;;;;;;1.97;1.77;;;17.10;52.70;;;;;;4992731;28;21279;-51
2021/05/21 07:37:52;;;;;;;2.00;1.10;;;17.00;53.10;;;;;;4991595;28;20621;-51
2021/05/21 07:40:20;;;;;;;3.27;2.23;;;17.00;52.70;;;;;;4991998;28;20624;-50
2021/05/21 07:42:46;;;;;;;3.40;1.60;;;17.00;52.90;;;;;;4991930;28;20655;-50
2021/05/21 07:45:14;;;;;;;2.47;1.33;;;17.00;53.40;;;;;;4992036;28;21166;-51
2021/05/21 07:47:40;;;;;;;2.33;1.47;;;17.00;53.20;;;;;;4992061;28;20707;-50
2021/05/21 07:50:08;;;;;;;2.57;1.27;;;17.00;53.50;;;;;;4992102;28;20628;-51
2021/05/21 07:52:35;;;;;;;1.73;1.37;;;16.90;54.00;;;;;;5011649;28;20623;-53
2021/05/21 07:55:03;;;;;;;5.80;1.60;;;16.80;54.60;;;;;;5011486;28;20652;-51
2021/05/21 07:57:31;;;;;;;3.43;1.30;;;16.80;54.90;;;;;;5011606;28;20652;-51
2021/05/21 07:59:58;;;;;;;2.67;1.60;;;16.70;55.30;;;;;;5011459;28;20690;-52
2021/05/21 08:02:25;;;;;;;1.67;1.40;;;16.70;55.60;;;;;;5011906;28;20620;-51
2021/05/21 08:04:51;;;;;;;3.90;1.60;;;16.70;55.50;;;;;;5011196;28;21121;-50
2021/05/21 08:07:18;;;;;;;6.17;1.80;;;16.80;55.70;;;;;;5011197;28;20719;-51
2021/05/21 08:09:48;;;;;;;1.50;1.40;;;16.90;55.80;;;;;;5011414;28;20642;-53
2021/05/21 08:12:16;;;;;;;1.97;1.07;;;16.90;56.40;;;;;;5011453;28;20627;-54
2021/05/21 08:14:44;;;;;;;2.00;1.40;;;17.00;55.80;;;;;;5010649;28;20636;-54
2021/05/21 08:17:11;;;;;;;1.40;1.30;;;17.00;56.10;;;;;;5010799;28;20773;-53
2021/05/21 08:19:39;;;;;;;2.60;1.93;;;17.00;56.00;;;;;;5010657;28;20623;-52
2021/05/21 08:22:05;;;;;;;3.17;1.63;;;17.10;56.20;;;;;;5011456;28;21005;-53
2021/05/21 08:24:32;;;;;;;2.97;2.00;;;17.20;56.30;;;;;;5011219;28;20998;-53
2021/05/21 08:26:59;;;;;;;3.53;1.20;;;17.20;56.20;;;;;;5011153;28;20668;-53
2021/05/21 08:29:26;;;;;;;2.50;1.50;;;17.20;56.20;;;;;;5011374;28;21033;-52
2021/05/21 08:31:53;;;;;;;2.77;1.10;;;17.20;56.20;;;;;;5011285;28;20632;-53
2021/05/21 08:34:20;;;;;;;2.63;1.80;;;17.10;56.20;;;;;;5011337;28;20743;-53
2021/05/21 08:36:47;;;;;;;2.30;1.50;;;17.10;56.90;;;;;;5011010;28;20664;-54
2021/05/21 08:39:14;;;;;;;2.00;1.80;;;17.10;57.10;;;;;;5010836;28;21196;-54
2021/05/21 08:41:44;;;;;;;2.20;1.60;;;17.20;57.00;;;;;;5010343;28;20682;-54
2021/05/21 08:44:11;;;;;;;5.13;1.60;;;17.30;56.80;;;;;;5011565;28;20697;-54
2021/05/21 08:46:38;;;;;;;2.03;1.67;;;17.30;56.60;;;;;;5010714;28;21228;-53
2021/05/21 08:49:05;;;;;;;1.73;1.10;;;17.40;56.80;;;;;;5010993;28;20694;-53
2021/05/21 08:51:33;;;;;;;2.23;1.47;;;17.50;56.40;;;;;;5010963;28;20639;-53
2021/05/21 08:53:59;;;;;;;1.90;1.30;;;17.60;56.40;;;;;;5010410;28;20670;-53
2021/05/21 08:56:26;;;;;;;1.67;1.20;;;17.60;55.90;;;;;;5010899;28;20731;-53
2021/05/21 08:58:53;;;;;;;1.60;1.20;;;17.60;55.80;;;;;;5011084;28;20991;-53
2021/05/21 09:01:20;;;;;;;4.30;1.30;;;17.50;55.10;;;;;;5010425;28;20702;-53
2021/05/21 09:03:48;;;;;;;7.67;1.80;;;17.40;55.00;;;;;;5011041;28;20993;-51
2021/05/21 09:06:18;;;;;;;2.00;1.20;;;17.30;53.60;;;;;;5010007;28;20659;-54
2021/05/21 09:08:46;;;;;;;2.20;1.00;;;17.20;54.00;;;;;;5009735;28;20701;-51
2021/05/21 09:11:31;;;;;;;4.87;1.67;;;17.30;53.80;;;;;;5010678;28;20745;-50
2021/05/21 09:14:00;;;;;;;3.47;1.43;;;17.30;53.10;;;;;;5010802;28;20742;-51
2021/05/21 09:16:27;;;;;;;2.60;1.03;;;17.10;52.60;;;;;;5011125;28;20829;-51
2021/05/21 09:19:11;;;;;;;7.00;1.63;;;17.10;53.10;;;;;;5009747;28;20644;-50
2021/05/21 09:22:00;;;;;;;2.53;1.33;;;17.00;53.30;;;;;;5010552;28;21081;-51
2021/05/21 09:24:29;;;;;;;3.93;1.40;;;17.10;53.60;;;;;;5009599;28;20635;-49
2021/05/21 09:26:56;;;;;;;1.40;1.10;;;17.20;52.60;;;;;;5010795;28;20656;-51
2021/05/21 09:29:42;;;;;;;2.23;1.20;;;17.10;52.60;;;;;;5009844;28;20686;-50
2021/05/21 09:32:16;;;;;;;1.70;1.57;;;17.10;51.80;;;;;;4990618;28;20613;-51
2021/05/21 09:34:46;;;;;;;9.53;2.37;;;17.10;51.40;;;;;;4999638;28;20627;-51
2021/05/21 09:37:21;;;;;;;5.40;1.70;;;17.10;52.00;;;;;;5012962;28;20622;-51
2021/05/21 09:40:05;;;;;;;2.77;1.27;;;17.20;52.30;;;;;;5013787;28;20902;-52
2021/05/21 09:42:46;;;;;;;2.10;1.13;;;17.20;51.10;;;;;;5012369;28;20627;-52
2021/05/21 09:45:22;;;;;;;8.50;2.17;;;17.20;51.40;;;;;;5028773;28;21041;-51
2021/05/21 09:47:53;;;;;;;3.17;1.60;;;17.30;52.00;;;;;;5029498;28;20725;-51
2021/05/21 09:50:20;;;;;;;2.63;1.20;;;17.40;51.50;;;;;;5029670;28;20704;-50
2021/05/21 09:52:48;;;;;;;1.53;1.33;;;17.60;51.50;;;;;;5013050;28;20987;-51
2021/05/21 09:55:15;;;;;;;2.93;2.00;;;17.60;50.70;;;;;;5009628;28;20656;-51
2021/05/21 09:57:42;;;;;;;3.33;1.23;;;17.50;51.10;;;;;;5007885;28;20624;-49
2021/05/21 10:00:10;;;;;;;4.10;2.10;;;17.40;51.80;;;;;;5008863;28;20632;-49
2021/05/21 10:02:36;;;;;;;5.47;1.90;;;17.50;51.70;;;;;;5009126;28;20623;-50
2021/05/21 10:05:04;;;;;;;2.10;1.50;;;17.50;52.20;;;;;;5009261;28;20655;-49
2021/05/21 10:07:31;;;;;;;3.07;1.30;;;17.70;52.20;;;;;;5008879;28;20678;-50
2021/05/21 10:09:59;;;;;;;8.27;1.80;;;18.00;51.30;;;;;;5026468;28;20631;-50
2021/05/21 10:12:26;;;;;;;3.70;1.77;;;18.10;51.30;;;;;;5028931;28;20639;-53
2021/05/21 10:14:53;;;;;;;4.70;1.50;;;18.20;51.00;;;;;;5028790;28;20705;-53
2021/05/21 10:17:21;;;;;;;2.93;1.60;;;18.20;51.00;;;;;;5028704;28;20619;-52
2021/05/21 10:19:48;;;;;;;3.40;1.43;;;18.30;50.90;;;;;;5029032;28;20626;-49
2021/05/21 10:22:17;;;;;;;7.00;2.00;;;18.30;50.00;;;;;;5029523;28;20985;-50
2021/05/21 10:24:45;;;;;;;4.87;1.90;;;18.30;49.30;;;;;;5024481;28;20635;-50
2021/05/21 10:27:17;;;;;;;4.47;1.77;;;18.00;49.80;;;;;;5009176;28;20722;-51
2021/05/21 10:29:44;;;;;;;3.80;1.80;;;17.90;50.20;;;;;;5009946;28;20650;-51
2021/05/21 10:32:15;;;;;;;5.00;1.50;;;18.10;50.50;;;;;;5010057;28;20627;-50
2021/05/21 10:34:43;;;;;;;5.63;1.87;;;18.20;49.70;;;;;;5009268;28;20692;-49
2021/05/21 10:37:24;;;;;;;5.80;1.90;;;18.30;49.90;;;;;;5008824;28;21200;-50
2021/05/21 10:40:13;;;;;;;7.37;1.93;;;18.40;49.60;;;;;;5010003;28;20632;-50
2021/05/21 10:42:46;;;;;;;7.67;1.90;;;18.80;49.00;;;;;;5010864;28;20700;-52
2021/05/21 10:45:15;;;;;;;3.40;1.90;;;19.00;48.10;;;;;;5028475;28;20679;-50
2021/05/21 10:47:44;;;;;;;5.37;2.00;;;19.00;48.00;;;;;;5028266;28;20662;-49
2021/05/21 10:50:19;;;;;;;3.20;2.10;;;19.00;47.80;;;;;;5028434;28;20689;-51
2021/05/21 10:52:58;;;;;;;8.40;2.47;;;18.90;47.20;;;;;;5028963;28;21133;-49
2021/05/21 10:55:44;;;;;;;8.80;1.80;;;18.80;48.10;;;;;;5028839;28;21008;-50
2021/05/21 10:58:26;;;;;;;4.60;1.60;;;18.90;48.10;;;;;;5028516;28;20673;-50
2021/05/21 11:01:28;;;;;;;2.03;1.13;;;19.00;47.80;;;;;;5017637;28;20706;-53
2021/05/21 11:04:08;;;;;;;5.10;2.20;;;19.00;46.50;;;;;;5011004;28;20636;-54
2021/05/21 11:07:00;;;;;;;3.30;1.40;;;18.90;46.70;;;;;;5014322;28;20706;-51
2021/05/21 11:09:30;;;;;;;3.60;2.00;;;18.70;47.10;;;;;;4999537;28;20694;-57
2021/05/21 11:12:01;;;;;;;2.10;1.43;;;18.80;46.80;;;;;;5013477;28;20690;-50
2021/05/21 11:14:33;;;;;;;2.53;1.50;;;18.90;46.90;;;;;;5013107;28;20624;-52
2021/05/21 11:17:08;;;;;;;6.80;2.07;;;19.00;47.10;;;;;;5013251;28;20678;-52
2021/05/21 11:19:35;;;;;;;4.10;2.10;;;19.00;47.50;;;;;;5014139;28;20713;-53
2021/05/21 11:22:06;;;;;;;4.33;1.63;;;19.10;47.20;;;;;;5013488;28;20627;-50
2021/05/21 11:24:37;;;;;;;3.00;1.50;;;19.10;47.40;;;;;;5013606;28;20686;-52
2021/05/21 11:27:06;;;;;;;6.03;1.70;;;19.30;47.60;;;;;;5013129;28;20697;-51
2021/05/21 11:29:34;;;;;;;3.03;2.00;;;19.40;46.90;;;;;;5014346;28;20636;-54
2021/05/21 11:32:01;;;;;;;2.83;1.70;;;19.40;46.20;;;;;;5014093;28;20623;-51
2021/05/21 11:34:28;;;;;;;1.70;1.03;;;19.40;46.10;;;;;;5014744;28;20628;-52
2021/05/21 11:36:56;;;;;;;3.47;1.57;;;19.30;46.00;;;;;;5013367;28;20663;-59
2021/05/21 11:39:25;;;;;;;1.87;1.17;;;19.20;46.30;;;;;;5013997;28;21021;-51
2021/05/21 11:41:53;;;;;;;4.07;1.63;;;19.20;46.00;;;;;;5013912;28;20628;-52
2021/05/21 11:44:24;;;;;;;5.70;1.40;;;19.20;46.30;;;;;;5033117;28;20976;-52
2021/05/21 11:46:56;;;;;;;6.80;1.90;;;19.10;46.40;;;;;;5033414;28;20757;-51
2021/05/21 11:49:23;;;;;;;2.03;1.50;;;19.00;45.60;;;;;;5033332;28;21029;-49
2021/05/21 11:51:53;;;;;;;1.37;1.00;;;19.00;45.40;;;;;;5033485;28;21241;-51
2021/05/21 11:54:21;;;;;;;5.20;1.83;;;18.90;45.30;;;;;;5033924;28;20665;-50
2021/05/21 11:56:47;;;;;;;5.07;2.10;;;18.80;45.80;;;;;;5033211;28;20712;-51
2021/05/21 11:59:17;;;;;;;3.60;1.97;;;18.90;46.00;;;;;;5033104;28;20645;-50
2021/05/21 12:01:44;;;;;;;2.93;1.53;;;19.00;46.20;;;;;;5015115;28;21046;-50
2021/05/21 12:04:12;;;;;;;4.13;1.73;;;19.00;46.80;;;;;;5013826;28;20905;-50
2021/05/21 12:06:40;;;;;;;3.10;1.40;;;19.10;46.90;;;;;;5013882;28;21196;-51
2021/05/21 12:09:08;;;;;;;7.07;1.60;;;19.10;46.80;;;;;;5013148;28;20727;-51
2021/05/21 12:11:34;;;;;;;2.83;1.40;;;19.10;46.80;;;;;;5013286;28;21047;-52
2021/05/21 12:14:01;;;;;;;1.33;1.23;;;19.10;46.90;;;;;;5013379;28;21137;-58
2021/05/21 12:16:30;;;;;;;3.47;1.50;;;19.20;45.90;;;;;;5012721;28;20656;-51
2021/05/21 12:18:57;;;;;;;2.30;1.37;;;19.10;45.50;;;;;;5012187;28;21173;-50
2021/05/21 12:21:25;;;;;;;5.37;2.20;;;19.20;46.00;;;;;;5012645;28;21038;-52
2021/05/21 12:23:53;;;;;;;5.80;2.20;;;19.30;46.00;;;;;;5012817;28;21199;-51
2021/05/21 12:26:21;;;;;;;2.03;1.13;;;19.50;45.20;;;;;;5012149;28;20717;-50
2021/05/21 12:28:48;;;;;;;3.20;1.33;;;19.50;45.40;;;;;;5012572;28;20994;-51
2021/05/21 12:31:15;;;;;;;2.60;1.50;;;19.60;44.80;;;;;;5012043;28;20743;-53
2021/05/21 12:33:42;;;;;;;5.83;1.87;;;19.70;43.90;;;;;;5012456;28;20623;-53
2021/05/21 12:36:11;;;;;;;4.63;1.43;;;19.70;43.60;;;;;;5011323;28;20663;-52
2021/05/21 12:38:39;;;;;;;4.43;1.27;;;19.70;43.30;;;;;;5012265;28;20620;-51
2021/05/21 12:41:06;;;;;;;2.57;1.53;;;19.40;43.10;;;;;;5010881;28;20710;-51
2021/05/21 12:43:33;;;;;;;3.43;1.60;;;19.30;43.50;;;;;;5025165;28;20623;-51
2021/05/21 12:46:04;;;;;;;3.20;1.50;;;19.20;43.40;;;;;;5031109;28;21206;-51
2021/05/21 12:48:39;;;;;;;4.10;2.63;;;19.20;43.70;;;;;;5030366;28;20654;-52
2021/05/21 12:51:13;;;;;;;4.70;1.80;;;19.10;42.80;;;;;;5030753;28;20680;-51
2021/05/21 12:53:40;;;;;;;5.07;2.00;;;19.10;42.90;;;;;;5030552;28;20653;-52